Weather reports worldwide

Advertisment
Torino Venaria, Italy (16060): temperature & dewpoint: 20.05.2019 00:00:00 - 26.05.2019 00:00:00 (CEST)Torino Venaria, Italy (16060): wind speed: 20.05.2019 00:00:00 - 26.05.2019 00:00:00 (CEST)Torino Venaria, Italy (16060): wind direction: 20.05.2019 00:00:00 - 26.05.2019 00:00:00 (CEST)Torino Venaria, Italy (16060): reduced air pressure: 20.05.2019 00:00:00 - 26.05.2019 00:00:00 (CEST)
Date & Time tt [°C] td [°C] ff [km/h] ff [kn] dd ppp [hPa]
26.05.2019 00:00:00 - - - - - -
25.05.2019 23:00:00 13,7 13,6 4 2 NNE 1014,3
25.05.2019 22:00:00 14,3 13,9 5 3 NNE 1013,5
25.05.2019 21:00:00 14,6 13,4 4 2 SE 1012,8
25.05.2019 20:00:00 15,7 12,9 9 5 SSE 1012,2
25.05.2019 19:00:00 17,5 12,9 5 3 S 1011,2
25.05.2019 18:00:00 17,5 13,9 4 2 NE 1011,0
25.05.2019 17:00:00 17,6 10,7 9 5 ENE 1011,3
25.05.2019 16:00:00 18,3 13,9 5 3 NNW 1010,8
25.05.2019 15:00:00 19,3 13,8 13 7 WSW 1010,8
25.05.2019 14:00:00 20,1 11,5 8 4 SW 1010,7
25.05.2019 13:00:00 21,0 13,1 4 2 NW 1010,9
25.05.2019 12:00:00 19,9 12,8 5 3 ENE 1011,4
25.05.2019 11:00:00 18,0 14,8 4 2 E 1011,6
25.05.2019 10:00:00 16,2 16,1 0 0 N 1011,9
25.05.2019 09:00:00 14,6 14,5 2 1 S 1012,0
25.05.2019 08:00:00 12,5 12,5 4 2 WNW 1012,0
25.05.2019 07:00:00 9,9 9,9 2 1 WNW 1011,9
25.05.2019 06:00:00 9,6 9,6 2 1 NW 1011,7
25.05.2019 05:00:00 8,9 8,9 4 2 WNW 1011,5
25.05.2019 04:00:00 8,8 8,6 4 2 WNW 1011,3
25.05.2019 03:00:00 9,2 9,2 2 1 NW 1011,3
25.05.2019 02:00:00 9,8 9,8 4 2 NW 1011,5
25.05.2019 01:00:00 9,2 8,7 2 1 WNW 1011,6
25.05.2019 00:00:00 10,3 9,5 2 1 WNW 1011,0
24.05.2019 23:00:00 12,1 11,6 4 2 WNW 1010,7
24.05.2019 22:00:00 13,0 12,2 8 4 WNW 1010,4
24.05.2019 21:00:00 14,1 12,9 8 4 ESE 1009,8
24.05.2019 20:00:00 14,6 13,4 11 6 N 1009,8
24.05.2019 19:00:00 14,4 13,7 9 5 WNW 1010,5
24.05.2019 18:00:00 14,2 11,1 9 5 NNW 1010,4
24.05.2019 17:00:00 19,9 9,7 15 8 S 1009,5
24.05.2019 16:00:00 22,1 11,7 5 3 E 1009,2
24.05.2019 15:00:00 22,6 12,2 4 2 NNE 1009,2
24.05.2019 14:00:00 21,4 11,4 8 4 ENE 1010,1
24.05.2019 13:00:00 20,7 12,8 4 2 NE 1010,7
24.05.2019 12:00:00 19,5 11,7 8 4 NE 1011,3
24.05.2019 11:00:00 18,4 11,9 8 4 NE 1011,6
24.05.2019 10:00:00 17,1 12,4 8 4 ENE 1011,9
24.05.2019 09:00:00 15,7 15,6 2 1 WNW 1012,0
24.05.2019 08:00:00 12,7 12,7 2 1 SW 1012,1
24.05.2019 07:00:00 10,4 10,4 4 2 WNW 1012,3
24.05.2019 06:00:00 9,5 9,5 2 1 WNW 1012,1
24.05.2019 05:00:00 8,7 8,4 4 2 W 1012,1
24.05.2019 04:00:00 8,9 8,3 4 2 WNW 1012,2
24.05.2019 03:00:00 11,0 10,5 2 1 NW 1012,0
24.05.2019 02:00:00 10,8 9,9 4 2 WSW 1012,2
24.05.2019 01:00:00 11,6 9,5 2 1 SW 1012,1
24.05.2019 00:00:00 13,3 10,4 4 2 W 1011,8
23.05.2019 23:00:00 16,1 12,9 5 3 WNW 1011,4
23.05.2019 22:00:00 16,3 9,2 2 1 W 1010,9
23.05.2019 21:00:00 20,4 10,7 4 2 NW 1010,3
23.05.2019 20:00:00 22,2 9,7 5 3 ESE 1009,6
23.05.2019 19:00:00 23,4 11,1 2 1 WSW 1009,6
23.05.2019 18:00:00 23,4 10,7 4 2 SSE 1009,9
23.05.2019 17:00:00 23,1 10,1 9 5 ENE 1010,3
23.05.2019 16:00:00 22,8 10,5 8 4 WSW 1010,7
23.05.2019 15:00:00 22,4 11,1 8 4 SSE 1011,5
23.05.2019 14:00:00 21,6 12,7 4 2 NE 1011,9
23.05.2019 13:00:00 21,0 12,1 4 2 S 1012,6
23.05.2019 12:00:00 19,7 11,4 4 2 W 1013,4
23.05.2019 11:00:00 18,7 12,8 4 2 SE 1013,8
23.05.2019 10:00:00 16,4 11,7 4 2 NNE 1014,4
23.05.2019 09:00:00 15,5 15,0 4 2 NNW 1014,5
23.05.2019 08:00:00 12,9 12,8 4 2 NNE 1014,8
23.05.2019 07:00:00 10,5 10,0 2 1 SW 1014,5
23.05.2019 06:00:00 11,6 11,4 2 1 NNE 1014,0
23.05.2019 05:00:00 11,5 10,6 2 1 SSW 1014,2
23.05.2019 04:00:00 12,7 11,9 4 2 W 1014,3
23.05.2019 03:00:00 12,8 11,8 8 4 NW 1014,5
23.05.2019 02:00:00 12,7 10,9 5 3 E 1013,9
23.05.2019 01:00:00 13,2 9,8 2 1 NW 1013,4
23.05.2019 00:00:00 16,1 10,4 4 2 N 1013,1
22.05.2019 23:00:00 15,9 9,3 2 1 WNW 1012,5
22.05.2019 22:00:00 17,5 9,1 8 4 S 1011,5
22.05.2019 21:00:00 19,4 9,8 11 6 SE 1010,7
22.05.2019 20:00:00 20,8 10,8 8 4 SSE 1009,8
22.05.2019 19:00:00 21,5 10,3 8 4 S 1009,6
22.05.2019 18:00:00 21,9 10,7 4 2 SSE 1009,6
22.05.2019 17:00:00 22,8 11,2 4 2 NE 1009,5
22.05.2019 16:00:00 22,5 10,9 5 3 SW 1009,8
22.05.2019 15:00:00 21,6 11,8 11 6 SW 1010,4
22.05.2019 14:00:00 20,8 12,2 13 7 SSW 1010,6
22.05.2019 13:00:00 20,1 12,8 11 6 SSW 1010,9
22.05.2019 12:00:00 18,7 12,2 8 4 SSW 1011,3
22.05.2019 11:00:00 17,4 11,4 8 4 SW 1011,5
22.05.2019 10:00:00 15,9 12,0 5 3 WSW 1011,8
22.05.2019 09:00:00 14,4 12,8 4 2 WSW 1011,9
22.05.2019 08:00:00 12,6 12,6 9 5 SW 1011,7
22.05.2019 07:00:00 10,6 10,6 0 0 N 1011,9
22.05.2019 06:00:00 9,2 8,3 2 1 SW 1011,6
22.05.2019 05:00:00 10,4 9,6 4 2 SE 1011,3
22.05.2019 04:00:00 11,1 10,3 8 4 WSW 1011,5
22.05.2019 03:00:00 12,1 11,2 5 3 W 1011,6
22.05.2019 02:00:00 12,5 10,5 4 2 SSW 1011,4
22.05.2019 01:00:00 13,1 11,0 8 4 S 1011,1
22.05.2019 00:00:00 13,3 11,0 9 5 S 1010,6
21.05.2019 23:00:00 14,5 9,9 9 5 SW 1010,0
21.05.2019 22:00:00 15,9 10,4 11 6 SSW 1009,1
21.05.2019 21:00:00 16,7 9,8 11 6 SSW 1007,9
21.05.2019 20:00:00 18,5 10,8 9 5 S 1007,1
21.05.2019 19:00:00 19,6 11,6 13 7 SE 1006,4
21.05.2019 18:00:00 22,6 11,3 13 7 W 1005,7
21.05.2019 17:00:00 22,1 12,8 11 6 W 1005,4
21.05.2019 16:00:00 21,8 12,8 11 6 WSW 1005,7
21.05.2019 15:00:00 20,9 11,5 8 4 SW 1005,8
21.05.2019 14:00:00 19,7 12,4 8 4 SW 1006,0
21.05.2019 13:00:00 18,6 10,6 9 5 SW 1006,1
21.05.2019 12:00:00 17,1 10,9 8 4 SSW 1006,2
21.05.2019 11:00:00 15,7 12,2 8 4 SSE 1006,2
21.05.2019 10:00:00 14,1 11,9 8 4 S 1006,1
21.05.2019 09:00:00 11,9 11,9 4 2 S 1006,3
21.05.2019 08:00:00 9,4 9,4 4 2 WNW 1006,3
21.05.2019 07:00:00 5,9 5,9 4 2 WNW 1006,4
21.05.2019 06:00:00 5,3 5,0 4 2 W 1006,4
21.05.2019 05:00:00 5,6 5,2 4 2 WNW 1006,2
21.05.2019 04:00:00 6,6 6,5 2 1 WNW 1006,0
21.05.2019 03:00:00 7,5 7,0 4 2 WSW 1005,9
21.05.2019 02:00:00 7,5 7,4 2 1 NNW 1005,9
21.05.2019 01:00:00 9,2 8,9 4 2 W 1005,5
21.05.2019 00:00:00 8,7 7,5 2 1 WNW 1005,5
20.05.2019 23:00:00 10,1 8,0 2 1 N 1005,1
20.05.2019 22:00:00 11,3 7,4 0 0 N 1004,4
20.05.2019 21:00:00 14,5 10,3 4 2 WSW 1003,5
20.05.2019 20:00:00 15,8 9,9 5 3 ESE 1003,4
20.05.2019 19:00:00 16,3 11,0 5 3 ESE 1003,2
20.05.2019 18:00:00 16,3 11,2 9 5 ENE 1002,8
20.05.2019 17:00:00 17,4 9,7 11 6 E 1002,5
20.05.2019 16:00:00 18,5 8,4 8 4 SSE 1002,2
20.05.2019 15:00:00 17,2 10,0 5 3 S 1002,3
20.05.2019 14:00:00 15,9 10,4 4 2 E 1002,4
20.05.2019 13:00:00 14,5 10,7 5 3 SSW 1002,7
20.05.2019 12:00:00 13,5 11,9 5 3 SSW 1002,9
20.05.2019 11:00:00 12,3 12,3 5 3 SSW 1003,0
20.05.2019 10:00:00 11,3 11,3 4 2 WSW 1003,0
20.05.2019 09:00:00 10,3 10,3 2 1 WSW 1002,9
20.05.2019 08:00:00 9,5 9,5 0 0 N 1002,9
20.05.2019 07:00:00 8,7 8,7 4 2 WNW 1002,9
20.05.2019 06:00:00 8,8 8,8 4 2 WNW 1002,6
20.05.2019 05:00:00 9,4 9,4 4 2 NW 1002,5
20.05.2019 04:00:00 9,5 9,5 0 0 N 1002,5
20.05.2019 03:00:00 9,1 8,9 2 1 WSW 1002,7
20.05.2019 02:00:00 9,4 9,1 2 1 W 1003,0
20.05.2019 01:00:00 10,6 10,6 4 2 WNW 1003,5
20.05.2019 00:00:00 11,1 10,9 0 0 N 1004,0

tt = temperature
td = dewpoint
ff = wind speed
dd = wind direction
ppp = reduced air pressure

Next stations